Time;durP1;ratioP1;P1;durP2;ratioP2;P2;SDS_P1;SDS_P2;PMS_P1;PMS_P2;Temp;Humidity;BMP_temperature;BMP_pressure;BME280_temperature;BME280_humidity;BME280_pressure;Samples;Min_cycle;Max_cycle;Signal;HPM_P1;HPM_P2
2021/05/05 00:01:55;;;;;;;8.35;2.50;;;18.80;43.80;;;;;;5043936;28;20098;-68
2021/05/05 00:04:21;;;;;;;7.47;2.60;;;18.80;43.90;;;;;;5038288;28;20065;-68
2021/05/05 00:06:47;;;;;;;13.25;3.45;;;18.80;43.90;;;;;;5052416;28;20033;-69
2021/05/05 00:09:14;;;;;;;6.05;2.60;;;18.80;44.00;;;;;;5050769;28;20036;-68
2021/05/05 00:11:41;;;;;;;6.35;2.50;;;18.70;43.90;;;;;;5051197;28;20393;-70
2021/05/05 00:14:09;;;;;;;8.07;2.45;;;18.80;44.00;;;;;;5043039;28;20199;-71
2021/05/05 00:16:35;;;;;;;7.38;2.47;;;18.70;44.00;;;;;;5032080;28;20061;-69
2021/05/05 00:19:00;;;;;;;6.47;2.67;;;18.70;44.10;;;;;;5035521;28;20048;-69
2021/05/05 00:21:26;;;;;;;5.38;2.85;;;18.70;44.20;;;;;;5032840;28;20250;-70
2021/05/05 00:23:52;;;;;;;6.07;2.88;;;18.70;44.20;;;;;;5032219;28;20017;-68
2021/05/05 00:26:17;;;;;;;8.75;2.50;;;18.60;44.20;;;;;;5046982;28;20462;-69
2021/05/05 00:28:43;;;;;;;5.18;2.60;;;18.60;44.30;;;;;;5049464;28;20035;-69
2021/05/05 00:31:09;;;;;;;7.03;2.78;;;18.60;44.50;;;;;;5050206;28;20482;-69
2021/05/05 00:33:35;;;;;;;4.53;2.35;;;18.50;44.50;;;;;;5043207;28;20021;-69
2021/05/05 00:36:00;;;;;;;8.00;2.60;;;18.50;44.50;;;;;;5033309;28;20032;-69
2021/05/05 00:38:26;;;;;;;5.90;2.45;;;18.50;44.60;;;;;;5037898;28;20033;-68
2021/05/05 00:40:52;;;;;;;6.57;3.10;;;18.40;44.60;;;;;;5042538;28;20032;-67
2021/05/05 00:43:17;;;;;;;8.25;3.53;;;18.40;44.70;;;;;;5044367;28;20489;-68
2021/05/05 00:45:43;;;;;;;5.50;2.65;;;18.30;44.80;;;;;;5042054;28;20028;-66
2021/05/05 00:48:09;;;;;;;7.03;3.25;;;18.30;44.90;;;;;;5048017;28;20044;-67
2021/05/05 00:50:35;;;;;;;5.65;2.60;;;18.20;45.10;;;;;;5038091;28;20032;-69
2021/05/05 00:53:00;;;;;;;6.78;2.80;;;18.20;45.20;;;;;;5051917;28;20390;-69
2021/05/05 00:55:26;;;;;;;9.57;3.10;;;18.20;45.40;;;;;;5050744;28;20032;-68
2021/05/05 00:57:52;;;;;;;6.70;2.50;;;18.20;45.50;;;;;;5047120;28;20036;-68
2021/05/05 01:00:20;;;;;;;4.32;2.88;;;18.20;45.50;;;;;;5051195;28;20025;-69
2021/05/05 01:02:46;;;;;;;8.23;2.75;;;18.20;45.60;;;;;;5051639;28;20074;-69
2021/05/05 01:05:14;;;;;;;6.53;2.63;;;18.10;45.70;;;;;;5051253;28;20025;-68
2021/05/05 01:07:40;;;;;;;6.78;2.75;;;18.10;45.90;;;;;;5032703;28;20111;-69
2021/05/05 01:10:10;;;;;;;7.35;2.92;;;18.10;46.00;;;;;;5050831;28;20029;-70
2021/05/05 01:12:35;;;;;;;5.10;2.65;;;18.00;46.00;;;;;;5052178;28;20126;-68
2021/05/05 01:15:01;;;;;;;6.90;2.40;;;18.00;46.00;;;;;;5056831;28;20040;-70
2021/05/05 01:17:28;;;;;;;5.85;2.50;;;18.00;46.10;;;;;;5050558;28;20060;-72
2021/05/05 01:19:54;;;;;;;6.50;2.70;;;18.00;46.20;;;;;;5045244;28;20029;-70
2021/05/05 01:22:20;;;;;;;7.43;2.63;;;18.00;46.30;;;;;;5032169;28;20103;-68
2021/05/05 01:24:46;;;;;;;8.27;2.78;;;18.00;46.20;;;;;;5046120;28;20029;-68
2021/05/05 01:27:12;;;;;;;5.30;2.55;;;18.00;46.30;;;;;;5049487;28;20028;-68
2021/05/05 01:29:38;;;;;;;6.45;2.67;;;18.00;46.30;;;;;;5036089;28;20037;-68
2021/05/05 01:32:05;;;;;;;5.07;2.55;;;18.00;46.30;;;;;;5031632;28;20045;-68
2021/05/05 01:34:32;;;;;;;5.53;2.53;;;18.00;46.20;;;;;;5033884;28;20401;-68
2021/05/05 01:36:58;;;;;;;5.15;2.55;;;18.00;46.40;;;;;;5047242;28;20036;-71
2021/05/05 01:39:23;;;;;;;10.38;2.80;;;18.00;46.40;;;;;;5038856;28;20033;-71
2021/05/05 01:41:50;;;;;;;5.70;2.63;;;18.00;46.40;;;;;;5051169;28;20044;-69
2021/05/05 01:44:16;;;;;;;5.82;2.92;;;18.00;46.30;;;;;;5053549;28;20032;-69
2021/05/05 01:46:48;;;;;;;6.90;3.00;;;18.00;46.30;;;;;;5055428;28;20040;-70
2021/05/05 01:49:18;;;;;;;8.98;3.63;;;18.00;46.30;;;;;;5052454;28;20474;-68
2021/05/05 01:51:44;;;;;;;7.47;2.97;;;18.00;46.50;;;;;;5035399;28;20029;-69
2021/05/05 01:54:10;;;;;;;12.13;3.08;;;18.00;46.40;;;;;;5034498;28;20394;-68
2021/05/05 01:56:36;;;;;;;7.32;3.05;;;18.00;46.40;;;;;;5054293;28;20025;-69
2021/05/05 01:59:01;;;;;;;7.75;3.03;;;18.00;46.40;;;;;;5051293;28;20116;-70
2021/05/05 02:01:27;;;;;;;5.53;2.95;;;17.90;46.50;;;;;;5052611;28;20071;-68
2021/05/05 02:03:58;;;;;;;10.10;3.30;;;17.90;46.50;;;;;;5052768;28;20147;-69
2021/05/05 02:06:24;;;;;;;8.93;3.00;;;17.90;46.60;;;;;;5042451;28;20033;-68
2021/05/05 02:08:49;;;;;;;5.72;2.80;;;17.90;46.60;;;;;;5053021;28;20054;-69
2021/05/05 02:11:16;;;;;;;6.05;2.50;;;17.80;46.80;;;;;;5054310;28;20124;-70
2021/05/05 02:13:42;;;;;;;8.10;2.83;;;17.80;47.00;;;;;;5034955;28;20025;-69
2021/05/05 02:16:08;;;;;;;4.85;2.83;;;17.70;47.00;;;;;;5034070;28;20384;-70
2021/05/05 02:18:33;;;;;;;5.93;2.58;;;17.70;46.90;;;;;;5034059;28;20169;-69
2021/05/05 02:20:59;;;;;;;7.55;3.22;;;17.80;47.00;;;;;;5050366;28;20025;-70
2021/05/05 02:23:25;;;;;;;8.60;3.08;;;17.80;47.00;;;;;;5033938;28;20059;-69
2021/05/05 02:25:50;;;;;;;9.05;3.10;;;17.70;47.10;;;;;;5034638;28;20072;-71
2021/05/05 02:28:16;;;;;;;5.80;2.80;;;17.70;47.20;;;;;;5033964;28;20036;-68
2021/05/05 02:30:42;;;;;;;7.45;2.97;;;17.70;47.20;;;;;;5034094;28;20054;-69
2021/05/05 02:33:07;;;;;;;9.50;3.22;;;17.70;47.50;;;;;;5035049;28;20336;-67
2021/05/05 02:35:33;;;;;;;8.20;3.70;;;17.60;47.50;;;;;;5034392;28;20044;-68
2021/05/05 02:37:59;;;;;;;7.50;3.15;;;17.70;47.30;;;;;;5034226;28;20029;-69
2021/05/05 02:40:24;;;;;;;8.50;3.30;;;17.70;47.20;;;;;;5033338;28;20207;-68
2021/05/05 02:42:50;;;;;;;7.63;2.97;;;17.70;47.10;;;;;;5050214;28;20083;-68
2021/05/05 02:45:16;;;;;;;5.95;3.03;;;17.80;47.10;;;;;;5044463;28;20030;-69
2021/05/05 02:47:41;;;;;;;10.40;3.00;;;17.80;47.00;;;;;;5034063;28;20030;-69
2021/05/05 02:50:08;;;;;;;6.50;3.45;;;17.80;46.90;;;;;;5040384;28;20466;-68
2021/05/05 02:52:33;;;;;;;7.68;4.00;;;17.80;46.70;;;;;;5033034;28;20033;-68
2021/05/05 02:55:00;;;;;;;5.13;2.92;;;17.80;46.40;;;;;;5034019;28;20032;-68
2021/05/05 02:57:25;;;;;;;6.85;3.00;;;17.80;46.20;;;;;;5047944;28;20025;-69
2021/05/05 02:59:51;;;;;;;7.43;2.97;;;17.80;46.00;;;;;;5048782;28;20394;-67
2021/05/05 03:02:17;;;;;;;7.95;2.90;;;17.70;45.60;;;;;;5042335;28;20073;-67
2021/05/05 03:04:42;;;;;;;11.80;3.08;;;17.70;45.30;;;;;;5050354;28;20052;-68
2021/05/05 03:07:08;;;;;;;6.93;3.10;;;17.60;45.40;;;;;;5050217;28;20036;-67
2021/05/05 03:09:34;;;;;;;8.60;2.90;;;17.50;45.50;;;;;;5053223;28;20033;-68
2021/05/05 03:12:00;;;;;;;4.70;2.90;;;17.40;45.70;;;;;;5038647;28;20096;-68
2021/05/05 03:14:27;;;;;;;5.05;2.90;;;17.20;45.90;;;;;;5032995;28;20037;-67
2021/05/05 03:16:57;;;;;;;6.50;2.88;;;17.10;46.20;;;;;;5040396;28;20110;-68
2021/05/05 03:19:23;;;;;;;6.68;3.25;;;17.10;46.30;;;;;;5039998;28;20463;-68
2021/05/05 03:21:49;;;;;;;6.82;2.90;;;17.00;46.40;;;;;;5034190;28;20037;-68
2021/05/05 03:24:15;;;;;;;5.28;2.90;;;17.00;46.70;;;;;;5032054;28;20025;-68
2021/05/05 03:26:41;;;;;;;4.20;2.63;;;16.90;46.90;;;;;;5032795;28;20070;-69
2021/05/05 03:29:06;;;;;;;8.30;2.97;;;16.80;47.20;;;;;;5033209;28;20094;-70
2021/05/05 03:31:34;;;;;;;4.38;2.80;;;16.90;47.10;;;;;;5041703;28;20033;-69
2021/05/05 03:34:00;;;;;;;5.82;2.55;;;16.90;46.90;;;;;;5043479;28;20048;-68
2021/05/05 03:36:26;;;;;;;4.90;2.75;;;17.00;46.60;;;;;;5044779;28;20033;-68
2021/05/05 03:38:52;;;;;;;5.85;2.97;;;17.00;46.50;;;;;;5051224;28;20029;-68
2021/05/05 03:41:17;;;;;;;8.30;3.20;;;17.10;46.30;;;;;;5050889;28;20032;-67
2021/05/05 03:43:43;;;;;;;5.93;2.80;;;17.20;46.20;;;;;;5044563;28;20026;-67
2021/05/05 03:46:09;;;;;;;6.57;3.05;;;17.20;46.10;;;;;;5035246;28;20060;-68
2021/05/05 03:48:34;;;;;;;5.03;3.00;;;17.10;46.20;;;;;;5043459;28;20149;-68
2021/05/05 03:51:02;;;;;;;6.50;3.13;;;17.10;46.10;;;;;;5035262;28;20519;-68
2021/05/05 03:53:28;;;;;;;7.18;3.20;;;17.10;46.20;;;;;;5032385;28;20025;-68
2021/05/05 03:55:54;;;;;;;7.03;2.75;;;17.10;46.20;;;;;;5037691;28;20090;-68
2021/05/05 03:58:20;;;;;;;8.52;3.20;;;17.00;46.10;;;;;;5050463;28;20091;-68
2021/05/05 04:00:45;;;;;;;4.97;3.10;;;17.00;46.10;;;;;;5035416;28;20426;-68
2021/05/05 04:03:11;;;;;;;5.80;2.80;;;17.00;46.10;;;;;;5036937;28;20079;-68
2021/05/05 04:05:37;;;;;;;7.00;3.10;;;17.00;45.90;;;;;;5050424;28;20078;-68
2021/05/05 04:08:03;;;;;;;5.68;3.35;;;17.10;45.80;;;;;;5033829;28;20041;-67
2021/05/05 04:10:29;;;;;;;9.25;3.15;;;17.10;45.50;;;;;;5033141;28;20052;-68
2021/05/05 04:12:55;;;;;;;5.35;2.80;;;17.20;45.30;;;;;;5049350;28;20119;-68
2021/05/05 04:15:20;;;;;;;6.15;2.95;;;17.30;45.10;;;;;;5049763;28;20036;-66
2021/05/05 04:17:46;;;;;;;7.55;3.35;;;17.30;44.60;;;;;;5046350;28;20090;-68
2021/05/05 04:20:15;;;;;;;14.48;3.63;;;17.40;44.30;;;;;;5034728;28;20057;-69
2021/05/05 04:22:41;;;;;;;9.52;2.70;;;17.50;44.10;;;;;;5051292;28;20036;-68
2021/05/05 04:25:07;;;;;;;6.43;3.08;;;17.60;43.80;;;;;;5048698;28;20474;-68
2021/05/05 04:27:33;;;;;;;5.28;3.08;;;17.70;43.50;;;;;;5032861;28;20034;-68
2021/05/05 04:29:59;;;;;;;6.15;3.10;;;17.70;43.40;;;;;;5031607;28;20025;-68
2021/05/05 04:32:24;;;;;;;8.23;3.70;;;17.70;43.20;;;;;;5029592;28;20151;-68
2021/05/05 04:34:50;;;;;;;7.80;3.20;;;17.80;43.20;;;;;;5048339;28;20086;-68
2021/05/05 04:37:16;;;;;;;9.23;3.92;;;17.90;43.20;;;;;;5043556;28;20421;-67
2021/05/05 04:39:42;;;;;;;7.72;3.40;;;17.90;43.00;;;;;;5043775;28;20033;-68
2021/05/05 04:42:09;;;;;;;10.63;3.58;;;17.90;43.00;;;;;;5032143;28;20036;-68
2021/05/05 04:44:35;;;;;;;7.43;3.72;;;18.00;43.00;;;;;;5029688;28;20030;-68
2021/05/05 04:47:00;;;;;;;6.60;3.38;;;17.90;42.90;;;;;;5047477;28;20033;-68
2021/05/05 04:49:27;;;;;;;11.80;3.58;;;17.90;43.00;;;;;;5036485;28;20116;-68
2021/05/05 04:51:52;;;;;;;9.02;3.33;;;18.00;43.00;;;;;;5046881;28;20037;-68
2021/05/05 04:54:19;;;;;;;8.88;3.70;;;18.00;42.90;;;;;;5046947;28;20593;-69
2021/05/05 04:56:44;;;;;;;7.93;3.95;;;18.00;42.90;;;;;;5048929;28;20470;-68
2021/05/05 04:59:10;;;;;;;9.93;4.05;;;18.10;43.00;;;;;;5040514;28;20026;-69
2021/05/05 05:01:36;;;;;;;11.43;3.75;;;18.10;43.10;;;;;;5032471;28;20462;-68
2021/05/05 05:04:02;;;;;;;7.05;3.70;;;18.10;43.10;;;;;;5035537;28;20075;-68
2021/05/05 05:06:28;;;;;;;10.10;4.57;;;18.10;43.10;;;;;;5034266;28;20504;-68
2021/05/05 05:08:54;;;;;;;11.55;5.03;;;18.10;43.10;;;;;;5034172;28;20081;-69
2021/05/05 05:11:20;;;;;;;6.55;3.47;;;18.10;43.10;;;;;;5042924;28;20030;-69
2021/05/05 05:13:45;;;;;;;10.35;3.65;;;18.10;43.00;;;;;;5031243;28;20026;-68
2021/05/05 05:16:11;;;;;;;17.13;4.93;;;18.10;43.00;;;;;;5040502;28;20066;-68
2021/05/05 05:18:37;;;;;;;12.57;4.85;;;18.10;44.10;;;;;;5050454;28;20037;-68
2021/05/05 05:21:05;;;;;;;10.32;4.78;;;18.10;44.70;;;;;;5051580;28;20175;-68
2021/05/05 05:23:32;;;;;;;17.08;5.15;;;18.10;44.60;;;;;;5049372;28;20037;-68
2021/05/05 05:25:58;;;;;;;23.70;5.25;;;18.20;44.60;;;;;;5034286;28;20036;-69
2021/05/05 05:28:24;;;;;;;16.42;5.47;;;18.20;45.10;;;;;;5030830;28;20029;-68
2021/05/05 05:30:50;;;;;;;16.27;5.57;;;18.20;45.30;;;;;;5031726;28;20474;-68
2021/05/05 05:33:19;;;;;;;21.33;6.10;;;18.30;45.60;;;;;;5043040;28;20025;-68
2021/05/05 05:35:44;;;;;;;18.65;6.45;;;18.20;46.10;;;;;;5044560;28;20032;-68
2021/05/05 05:38:11;;;;;;;16.50;5.55;;;18.30;46.10;;;;;;5031320;28;20406;-68
2021/05/05 05:40:37;;;;;;;9.00;4.68;;;18.30;45.70;;;;;;5030416;28;20060;-68
2021/05/05 05:43:03;;;;;;;15.02;5.45;;;18.40;44.80;;;;;;5048658;28;20032;-69
2021/05/05 05:45:29;;;;;;;17.92;5.43;;;18.40;44.40;;;;;;5049262;28;20050;-67
2021/05/05 05:47:55;;;;;;;16.17;5.60;;;18.40;44.40;;;;;;5050770;28;20033;-69
2021/05/05 05:50:21;;;;;;;13.32;5.05;;;18.30;43.80;;;;;;5050630;28;20032;-69
2021/05/05 05:52:46;;;;;;;16.08;5.28;;;18.30;43.70;;;;;;5049350;28;20028;-67
2021/05/05 05:55:15;;;;;;;25.08;5.85;;;18.10;43.90;;;;;;5051023;28;20021;-68
2021/05/05 05:57:43;;;;;;;14.23;5.07;;;18.10;44.10;;;;;;5041438;28;20085;-69
2021/05/05 06:00:13;;;;;;;11.15;5.53;;;18.20;43.90;;;;;;5029750;28;20044;-68
2021/05/05 06:02:39;;;;;;;11.75;5.70;;;18.40;44.30;;;;;;5048764;28;20037;-67
2021/05/05 06:05:05;;;;;;;12.48;5.60;;;18.40;43.40;;;;;;5051146;28;20351;-68
2021/05/05 06:07:31;;;;;;;13.50;5.80;;;18.50;43.20;;;;;;5050142;28;20055;-68
2021/05/05 06:09:58;;;;;;;11.25;4.95;;;18.50;42.90;;;;;;5049423;28;20389;-68
2021/05/05 06:12:24;;;;;;;11.25;5.75;;;18.60;42.80;;;;;;5050195;28;20025;-69
2021/05/05 06:14:50;;;;;;;16.73;5.35;;;18.70;42.60;;;;;;5036020;28;20457;-69
2021/05/05 06:17:15;;;;;;;9.90;5.65;;;18.80;42.40;;;;;;5030819;28;20120;-69
2021/05/05 06:19:41;;;;;;;15.60;5.50;;;18.80;42.30;;;;;;5030026;28;20048;-68
2021/05/05 06:22:07;;;;;;;11.63;6.10;;;18.80;42.10;;;;;;5041367;28;20041;-69
2021/05/05 06:24:33;;;;;;;15.68;5.90;;;19.00;42.00;;;;;;5049737;28;20025;-68
2021/05/05 06:26:58;;;;;;;11.52;5.38;;;19.30;41.50;;;;;;5050395;28;20117;-68
2021/05/05 06:29:24;;;;;;;11.85;5.60;;;19.60;40.50;;;;;;5054283;28;20029;-68
2021/05/05 06:31:50;;;;;;;16.13;6.30;;;20.00;40.00;;;;;;5044589;28;20028;-69
2021/05/05 06:34:16;;;;;;;17.90;6.30;;;20.50;39.60;;;;;;5053964;28;20042;-67
2021/05/05 06:36:41;;;;;;;14.02;5.28;;;20.90;37.90;;;;;;5053283;28;20481;-69
2021/05/05 06:39:08;;;;;;;10.10;5.13;;;20.80;37.30;;;;;;5053840;28;20127;-68
2021/05/05 06:41:38;;;;;;;16.27;6.00;;;20.70;37.50;;;;;;5051606;28;20110;-69
2021/05/05 06:44:05;;;;;;;12.60;5.53;;;20.50;38.20;;;;;;5052649;28;20028;-69
2021/05/05 06:46:31;;;;;;;12.63;5.90;;;20.40;38.20;;;;;;5051197;28;20146;-68
2021/05/05 06:48:58;;;;;;;14.20;5.88;;;20.60;38.60;;;;;;5051269;28;20033;-69
2021/05/05 06:51:24;;;;;;;11.60;5.60;;;21.00;37.90;;;;;;5052050;28;20340;-69
2021/05/05 06:53:50;;;;;;;11.77;5.82;;;21.30;37.30;;;;;;5051580;28;20025;-67
2021/05/05 06:56:16;;;;;;;10.88;6.28;;;21.40;37.00;;;;;;5051909;28;20025;-68
2021/05/05 06:58:42;;;;;;;15.13;6.22;;;23.70;35.30;;;;;;5050687;28;20029;-68
2021/05/05 07:01:07;;;;;;;11.50;6.30;;;27.80;30.50;;;;;;5052140;28;20107;-68
2021/05/05 07:03:33;;;;;;;13.55;6.00;;;31.50;27.10;;;;;;5048788;28;20048;-67
2021/05/05 07:05:59;;;;;;;9.82;5.35;;;33.80;24.70;;;;;;5051213;28;20025;-69
2021/05/05 07:08:28;;;;;;;10.00;5.95;;;34.70;24.20;;;;;;5052955;28;20032;-68
2021/05/05 07:10:54;;;;;;;6.80;5.40;;;35.80;23.60;;;;;;5052394;28;20032;-68
2021/05/05 07:13:20;;;;;;;11.10;5.80;;;37.50;22.30;;;;;;5050603;28;20029;-66
2021/05/05 07:15:46;;;;;;;15.52;5.60;;;39.20;21.80;;;;;;5050658;28;20037;-66
2021/05/05 07:18:12;;;;;;;11.82;5.55;;;40.70;20.50;;;;;;5049769;28;20473;-66
2021/05/05 07:20:38;;;;;;;10.52;5.25;;;40.90;19.80;;;;;;5067529;28;20036;-67
2021/05/05 07:23:03;;;;;;;9.35;5.32;;;41.50;19.90;;;;;;5054028;28;20044;-64
2021/05/05 07:25:29;;;;;;;9.63;5.90;;;41.80;19.80;;;;;;5066952;28;20027;-66
2021/05/05 07:27:57;;;;;;;9.27;5.60;;;42.90;19.50;;;;;;5052554;28;20535;-68
2021/05/05 07:30:23;;;;;;;10.38;5.50;;;43.80;19.00;;;;;;5062770;28;20052;-67
2021/05/05 07:32:48;;;;;;;16.30;6.05;;;44.50;18.80;;;;;;5040958;28;20127;-66
2021/05/05 07:35:16;;;;;;;10.35;5.70;;;44.10;18.70;;;;;;5063732;28;20036;-66
2021/05/05 07:45:37;;;;;;;10.70;6.47;;;42.10;19.10;;;;;;5036983;28;20029;-68
2021/05/05 07:48:07;;;;;;;11.77;6.75;;;42.80;19.00;;;;;;5041858;28;20133;-68
2021/05/05 07:50:33;;;;;;;9.45;6.18;;;44.80;18.80;;;;;;5034519;28;20057;-69
2021/05/05 07:53:00;;;;;;;15.20;6.90;;;46.30;18.40;;;;;;5043433;28;20351;-68
2021/05/05 07:55:26;;;;;;;16.30;6.80;;;46.40;18.10;;;;;;5032593;28;20026;-70
2021/05/05 07:57:52;;;;;;;13.85;5.85;;;46.00;18.00;;;;;;5035121;28;20033;-69
2021/05/05 08:00:19;;;;;;;8.73;4.93;;;46.60;18.10;;;;;;5052044;28;20072;-70
2021/05/05 08:02:44;;;;;;;13.18;4.70;;;45.60;18.00;;;;;;5049377;28;20059;-70
2021/05/05 08:05:10;;;;;;;13.05;5.15;;;44.00;18.40;;;;;;5046950;28;20088;-72
2021/05/05 08:07:36;;;;;;;8.75;4.18;;;42.40;18.70;;;;;;5043045;28;20037;-71
2021/05/05 08:10:04;;;;;;;10.82;4.90;;;40.50;19.20;;;;;;5033285;28;20450;-71
2021/05/05 08:12:29;;;;;;;8.00;4.60;;;38.60;19.90;;;;;;5042848;28;20025;-70
2021/05/05 08:14:55;;;;;;;9.95;5.13;;;39.00;20.20;;;;;;5029867;28;20577;-71
2021/05/05 08:17:21;;;;;;;10.60;5.28;;;39.20;19.80;;;;;;5032738;28;20057;-70
2021/05/05 08:19:47;;;;;;;9.45;5.53;;;38.50;20.00;;;;;;5028818;28;20091;-72
2021/05/05 08:22:13;;;;;;;11.73;6.03;;;38.50;19.60;;;;;;5040081;28;20034;-72
2021/05/05 08:24:39;;;;;;;9.10;5.55;;;38.80;19.70;;;;;;5045596;28;20526;-70
2021/05/05 08:27:05;;;;;;;9.57;5.88;;;40.90;19.90;;;;;;5040289;28;20063;-69
2021/05/05 08:29:32;;;;;;;10.30;6.05;;;42.80;18.90;;;;;;5064743;28;20100;-71
2021/05/05 08:32:16;;;;;;;19.55;6.60;;;44.20;18.40;;;;;;5036750;28;20033;-70
2021/05/05 08:34:42;;;;;;;11.75;5.10;;;44.50;18.20;;;;;;5030390;28;20029;-70
2021/05/05 08:37:08;;;;;;;12.63;4.30;;;44.90;18.10;;;;;;5029809;28;20055;-71
2021/05/05 08:39:33;;;;;;;10.02;4.97;;;45.40;18.00;;;;;;5034617;28;20101;-67
2021/05/05 08:41:59;;;;;;;10.32;3.97;;;44.70;18.30;;;;;;5033108;28;20033;-68
2021/05/05 08:44:44;;;;;;;11.13;4.78;;;43.80;18.00;;;;;;5029663;28;20060;-71
2021/05/05 08:47:09;;;;;;;13.73;5.03;;;43.10;18.00;;;;;;5031217;28;20037;-66
2021/05/05 08:49:35;;;;;;;10.27;5.10;;;42.20;18.30;;;;;;5028987;28;20037;-72
2021/05/05 08:52:01;;;;;;;12.43;5.13;;;42.40;18.40;;;;;;5044284;28;20028;-69
2021/05/05 08:54:27;;;;;;;8.43;4.05;;;42.10;18.60;;;;;;5049546;28;20473;-69
2021/05/05 08:56:52;;;;;;;9.57;4.82;;;41.60;18.70;;;;;;5045115;28;20405;-65
2021/05/05 08:59:18;;;;;;;9.05;4.97;;;41.40;18.80;;;;;;5037291;28;20406;-65
2021/05/05 09:01:44;;;;;;;11.98;4.00;;;40.80;18.90;;;;;;5032894;28;20420;-65
2021/05/05 09:04:11;;;;;;;6.95;3.75;;;39.10;19.30;;;;;;5034012;28;20032;-65
2021/05/05 09:06:50;;;;;;;9.13;3.70;;;36.80;19.90;;;;;;5030094;28;20037;-67
2021/05/05 09:09:34;;;;;;;8.75;3.60;;;34.70;21.00;;;;;;5045026;28;20120;-67
2021/05/05 09:12:17;;;;;;;9.07;3.88;;;32.90;21.90;;;;;;5046710;28;20188;-71
2021/05/05 09:15:04;;;;;;;9.52;3.97;;;32.20;22.40;;;;;;5041721;28;20119;-69
2021/05/05 09:17:35;;;;;;;7.03;3.63;;;31.40;22.80;;;;;;5032746;28;20091;-73
2021/05/05 09:20:07;;;;;;;5.75;3.75;;;30.90;23.30;;;;;;5045055;28;20230;-71
2021/05/05 09:22:48;;;;;;;11.18;3.75;;;30.70;23.40;;;;;;5042575;28;20043;-68
2021/05/05 09:25:26;;;;;;;12.18;4.70;;;30.60;23.50;;;;;;5031098;28;20037;-66
2021/05/05 09:28:13;;;;;;;11.35;4.13;;;30.30;24.00;;;;;;5039983;28;20580;-67
2021/05/05 09:30:51;;;;;;;11.30;3.90;;;30.00;24.50;;;;;;5046587;28;20029;-67
2021/05/05 09:33:25;;;;;;;8.82;3.75;;;29.50;24.80;;;;;;5038979;28;20021;-68
2021/05/05 09:35:56;;;;;;;10.70;3.95;;;29.00;25.30;;;;;;5030976;28;20497;-76
2021/05/05 09:38:37;;;;;;;8.80;4.00;;;28.20;25.90;;;;;;5037123;28;20492;-62
2021/05/05 09:41:02;;;;;;;17.70;5.50;;;27.60;26.20;;;;;;5036949;28;20533;-65
2021/05/05 09:43:35;;;;;;;10.85;4.78;;;27.40;26.60;;;;;;5043393;28;20029;-68
2021/05/05 09:46:01;;;;;;;15.13;4.43;;;27.00;26.90;;;;;;5034129;28;20026;-66
2021/05/05 09:48:27;;;;;;;11.27;5.10;;;26.70;27.30;;;;;;5031218;28;20030;-65
2021/05/05 09:51:00;;;;;;;11.93;4.78;;;26.50;27.50;;;;;;5031434;28;20089;-67
2021/05/05 09:53:32;;;;;;;9.68;4.60;;;26.30;27.80;;;;;;5030451;28;20022;-67
2021/05/05 09:55:58;;;;;;;9.45;4.43;;;26.00;28.20;;;;;;5030260;28;20034;-67
2021/05/05 09:58:29;;;;;;;13.18;4.38;;;25.90;28.20;;;;;;5033389;28;20120;-63
2021/05/05 10:01:04;;;;;;;8.82;4.63;;;26.10;28.10;;;;;;5031052;28;20037;-65
2021/05/05 10:03:49;;;;;;;11.15;5.18;;;26.50;27.80;;;;;;5051105;28;20021;-64
2021/05/05 10:06:37;;;;;;;11.15;4.68;;;26.60;27.70;;;;;;5052865;28;20057;-68
2021/05/05 10:09:08;;;;;;;9.68;4.40;;;26.90;27.40;;;;;;5053462;28;20033;-68
2021/05/05 10:11:38;;;;;;;9.80;4.40;;;27.00;27.30;;;;;;5052889;28;20032;-69
2021/05/05 10:14:09;;;;;;;9.88;4.05;;;27.00;27.30;;;;;;5051437;28;20043;-68
2021/05/05 10:16:44;;;;;;;9.65;3.90;;;26.90;27.10;;;;;;5053695;28;20044;-67
2021/05/05 10:19:23;;;;;;;9.88;3.97;;;27.10;27.00;;;;;;5053674;28;20162;-68
2021/05/05 10:21:59;;;;;;;8.07;4.28;;;27.00;27.30;;;;;;5051613;28;20083;-67
2021/05/05 10:24:29;;;;;;;13.50;5.00;;;26.80;28.00;;;;;;5037346;28;20041;-67
2021/05/05 10:26:56;;;;;;;10.85;4.38;;;26.40;28.60;;;;;;5031417;28;20063;-68
2021/05/05 10:29:28;;;;;;;16.60;4.45;;;26.40;28.80;;;;;;5033153;28;20411;-67
2021/05/05 10:32:00;;;;;;;17.02;4.90;;;26.60;28.80;;;;;;5031300;28;20171;-68
2021/05/05 10:34:28;;;;;;;9.38;4.88;;;26.60;28.70;;;;;;5033986;28;20025;-68
2021/05/05 10:37:00;;;;;;;20.08;4.40;;;26.60;28.60;;;;;;5031389;28;20037;-69
2021/05/05 10:39:45;;;;;;;15.68;4.93;;;26.40;28.50;;;;;;5033504;28;20033;-69
2021/05/05 10:42:16;;;;;;;14.25;3.45;;;26.20;28.60;;;;;;5033155;28;20040;-67
2021/05/05 10:44:52;;;;;;;5.32;3.10;;;26.00;28.90;;;;;;5033271;28;20122;-69
2021/05/05 10:47:20;;;;;;;12.88;3.50;;;25.50;30.00;;;;;;5047323;28;20036;-70
2021/05/05 10:50:08;;;;;;;5.65;2.70;;;25.10;30.70;;;;;;5031757;28;20359;-69
2021/05/05 10:52:34;;;;;;;8.00;2.70;;;24.90;31.40;;;;;;5032514;28;20104;-66
2021/05/05 10:55:01;;;;;;;9.80;2.92;;;24.60;31.80;;;;;;5032512;28;20363;-66
2021/05/05 10:57:27;;;;;;;10.32;3.55;;;24.30;32.40;;;;;;5033503;28;20047;-67
2021/05/05 11:00:03;;;;;;;5.75;2.55;;;24.10;32.50;;;;;;5032224;28;20033;-71
2021/05/05 11:05:15;;;;;;;10.05;2.83;;;23.80;33.00;;;;;;5052682;28;20116;-64
2021/05/05 11:07:47;;;;;;;8.60;2.15;;;23.50;33.70;;;;;;5044155;28;20532;-66
2021/05/05 11:10:37;;;;;;;4.55;2.30;;;23.40;33.90;;;;;;5032136;28;20029;-67
2021/05/05 11:13:15;;;;;;;12.70;2.72;;;23.10;35.10;;;;;;5031414;28;20053;-67
2021/05/05 11:15:40;;;;;;;10.43;2.10;;;22.80;37.00;;;;;;5044667;28;20029;-64
2021/05/05 11:18:31;;;;;;;11.35;2.20;;;22.40;37.90;;;;;;5043222;28;20080;-66
2021/05/05 11:20:59;;;;;;;6.50;2.00;;;22.00;39.10;;;;;;5031833;28;20037;-69
2021/05/05 11:23:34;;;;;;;5.18;1.90;;;21.60;40.30;;;;;;5050781;28;20395;-64
2021/05/05 11:26:23;;;;;;;11.63;1.80;;;21.30;41.60;;;;;;5040258;28;20099;-65
2021/05/05 11:28:59;;;;;;;11.25;1.88;;;20.80;43.00;;;;;;5033625;28;20041;-68
2021/05/05 11:31:50;;;;;;;10.45;4.47;;;20.50;42.90;;;;;;5052216;28;20045;-65
2021/05/05 11:34:22;;;;;;;5.32;1.60;;;20.30;43.80;;;;;;5052211;28;20021;-64
2021/05/05 11:37:04;;;;;;;5.72;1.58;;;20.20;43.60;;;;;;5052497;28;20053;-67
2021/05/05 11:39:33;;;;;;;5.43;1.30;;;19.90;44.20;;;;;;5052418;28;20032;-67
2021/05/05 11:42:01;;;;;;;4.25;1.70;;;19.40;45.50;;;;;;5049909;28;20029;-67
2021/05/05 11:44:35;;;;;;;12.23;1.48;;;19.20;45.60;;;;;;5051571;28;20382;-67
2021/05/05 11:47:11;;;;;;;2.30;1.10;;;19.20;45.60;;;;;;5031191;28;20022;-66
2021/05/05 11:49:48;;;;;;;5.93;1.30;;;19.10;46.30;;;;;;5041237;28;20029;-66
2021/05/05 11:52:20;;;;;;;3.08;1.20;;;19.00;46.20;;;;;;5051842;28;20069;-64
2021/05/05 11:54:51;;;;;;;5.88;1.27;;;18.90;46.50;;;;;;5051760;28;20085;-63
2021/05/05 11:57:17;;;;;;;4.38;1.30;;;18.90;46.70;;;;;;5051757;28;20104;-63
2021/05/05 11:59:43;;;;;;;5.10;1.60;;;18.80;46.80;;;;;;5050422;28;20075;-67
2021/05/05 12:02:09;;;;;;;8.13;2.25;;;18.60;47.10;;;;;;5051247;28;20071;-69
2021/05/05 12:04:42;;;;;;;4.72;1.40;;;18.60;47.20;;;;;;5051216;28;20439;-67
2021/05/05 12:07:13;;;;;;;3.83;1.23;;;18.30;47.90;;;;;;5034773;28;20029;-67
2021/05/05 12:09:41;;;;;;;6.93;1.25;;;18.30;47.90;;;;;;5038755;28;20128;-64
2021/05/05 12:12:28;;;;;;;4.88;1.45;;;18.10;48.30;;;;;;5051391;28;20497;-66
2021/05/05 12:15:05;;;;;;;7.05;1.38;;;18.10;48.20;;;;;;5050957;28;20025;-70
2021/05/05 12:17:43;;;;;;;6.45;1.73;;;18.10;48.40;;;;;;5051055;28;20045;-68
2021/05/05 12:20:14;;;;;;;6.85;1.42;;;17.80;49.00;;;;;;5050701;28;20059;-68
2021/05/05 12:22:56;;;;;;;3.45;1.50;;;17.60;49.90;;;;;;5051707;28;20045;-68
2021/05/05 12:25:24;;;;;;;2.53;1.00;;;17.60;49.40;;;;;;5050887;28;20033;-68
2021/05/05 12:28:10;;;;;;;3.50;1.10;;;17.60;49.50;;;;;;5051674;28;20159;-68
2021/05/05 12:30:46;;;;;;;1.13;0.70;;;17.70;49.50;;;;;;5050309;28;20382;-68
2021/05/05 12:33:14;;;;;;;6.97;1.60;;;17.70;48.80;;;;;;5049443;28;20032;-69
2021/05/05 12:35:41;;;;;;;2.10;1.02;;;17.70;48.40;;;;;;5050825;28;20021;-68
2021/05/05 12:38:16;;;;;;;3.60;1.00;;;17.70;47.50;;;;;;5042666;28;20081;-68
2021/05/05 12:40:43;;;;;;;3.40;0.80;;;17.70;46.90;;;;;;5030193;28;20079;-68
2021/05/05 12:43:27;;;;;;;2.78;1.00;;;17.30;47.30;;;;;;5030109;28;20116;-67
2021/05/05 12:45:57;;;;;;;4.57;0.90;;;17.20;47.60;;;;;;5051143;28;20033;-67
2021/05/05 12:48:32;;;;;;;3.70;0.80;;;17.10;47.70;;;;;;5032797;28;20039;-67
2021/05/05 12:51:11;;;;;;;1.33;0.80;;;16.50;48.70;;;;;;5046098;28;20032;-69
2021/05/05 12:53:58;;;;;;;3.20;0.90;;;16.30;49.30;;;;;;5047956;28;20040;-68
2021/05/05 12:56:41;;;;;;;4.43;0.70;;;16.30;49.80;;;;;;5046307;28;20025;-68
2021/05/05 12:59:08;;;;;;;1.13;0.70;;;16.10;50.70;;;;;;5046175;28;20139;-67
2021/05/05 13:01:34;;;;;;;1.08;0.70;;;15.80;52.20;;;;;;5049618;28;20593;-69